Time;durP1;ratioP1;P1;durP2;ratioP2;P2;SDS_P1;SDS_P2;PMS_P1;PMS_P2;Temp;Humidity;BMP_temperature;BMP_pressure;BME280_temperature;BME280_humidity;BME280_pressure;Samples;Min_cycle;Max_cycle;Signal;HPM_P1;HPM_P2
2023/05/30 00:01:31;;;;;;;7.43;3.75;;;;;;;12.31;100.00;94497.16;5141475;27;20192;-73
2023/05/30 00:04:00;;;;;;;10.05;5.60;;;;;;;12.35;100.00;94503.50;5149392;27;20280;-73
2023/05/30 00:06:27;;;;;;;8.30;4.15;;;;;;;12.38;100.00;94502.84;5142251;27;20224;-74
2023/05/30 00:08:54;;;;;;;8.35;3.35;;;;;;;12.24;100.00;94491.53;5151727;27;20677;-75
2023/05/30 00:11:23;;;;;;;5.40;3.88;;;;;;;12.24;100.00;94491.53;5151223;27;20554;-75
2023/05/30 00:13:51;;;;;;;4.20;3.10;;;;;;;12.26;100.00;94500.94;5147469;27;20204;-74
2023/05/30 00:16:19;;;;;;;7.93;3.33;;;;;;;12.22;100.00;94501.94;5151552;27;20207;-74
2023/05/30 00:18:47;;;;;;;6.43;3.25;;;;;;;12.15;100.00;94504.44;5137513;27;20253;-74
2023/05/30 00:21:17;;;;;;;5.70;3.58;;;;;;;12.16;100.00;94503.31;5151319;27;20204;-74
2023/05/30 00:23:45;;;;;;;4.13;3.08;;;;;;;12.16;100.00;94511.47;5144209;27;20212;-75
2023/05/30 00:26:13;;;;;;;8.18;3.55;;;;;;;12.09;100.00;94491.09;5137432;27;20630;-73
2023/05/30 00:28:40;;;;;;;4.25;2.92;;;;;;;12.02;100.00;94507.16;5151150;27;20203;-73
2023/05/30 00:31:07;;;;;;;7.70;3.33;;;;;;;12.15;100.00;94507.16;5144732;27;20873;-73
2023/05/30 00:33:34;;;;;;;5.25;3.38;;;;;;;12.15;100.00;94513.38;5142795;27;20205;-73
2023/05/30 00:36:02;;;;;;;7.53;3.67;;;;;;;11.97;100.00;94509.31;5145268;27;20252;-75
2023/05/30 00:38:29;;;;;;;7.10;3.38;;;;;;;11.99;100.00;94512.47;5150521;27;20698;-73
2023/05/30 00:40:56;;;;;;;5.05;3.08;;;;;;;12.01;100.00;94511.00;5151254;27;20200;-74
2023/05/30 00:43:23;;;;;;;11.85;3.28;;;;;;;11.96;100.00;94513.16;5142650;27;20295;-74
2023/05/30 00:45:54;;;;;;;10.20;3.78;;;;;;;11.90;100.00;94515.28;5143700;27;20228;-74
2023/05/30 00:48:21;;;;;;;3.92;3.10;;;;;;;11.88;100.00;94523.00;5149409;27;20204;-74
2023/05/30 00:50:49;;;;;;;5.13;3.22;;;;;;;11.91;100.00;94511.44;5140231;27;20730;-74
2023/05/30 00:53:20;;;;;;;9.30;3.10;;;;;;;11.96;100.00;94518.56;5140274;27;20878;-74
2023/05/30 00:55:48;;;;;;;6.93;3.10;;;;;;;11.93;100.00;94506.47;5143645;27;20256;-74
2023/05/30 00:58:15;;;;;;;7.03;3.45;;;;;;;11.90;100.00;94514.50;5141609;27;20228;-74
2023/05/30 01:00:42;;;;;;;4.07;3.05;;;;;;;11.97;100.00;94523.66;5150435;27;20198;-74
2023/05/30 01:03:09;;;;;;;13.70;3.20;;;;;;;11.99;100.00;94524.13;5150632;27;20685;-75
2023/05/30 01:05:36;;;;;;;5.20;2.72;;;;;;;11.98;100.00;94519.03;5144780;27;20698;-74
2023/05/30 01:08:03;;;;;;;7.60;3.00;;;;;;;11.88;100.00;94523.00;5138680;27;20204;-75
2023/05/30 01:10:32;;;;;;;5.15;3.28;;;;;;;11.94;100.00;94518.91;5149493;27;20470;-75
2023/05/30 01:13:11;;;;;;;7.68;3.42;;;;;;;11.97;100.00;94515.53;5145040;27;20533;-74
2023/05/30 01:15:41;;;;;;;3.92;3.03;;;;;;;11.92;100.00;94517.66;5134533;27;20208;-75
2023/05/30 01:18:17;;;;;;;5.28;3.00;;;;;;;11.89;100.00;94513.69;5146681;27;20751;-74
2023/05/30 01:20:48;;;;;;;7.10;3.15;;;;;;;11.88;100.00;94512.13;5149963;27;20562;-75
2023/05/30 01:23:36;;;;;;;6.28;3.20;;;;;;;11.81;100.00;94511.88;5146495;27;20655;-74
2023/05/30 01:26:23;;;;;;;7.78;2.95;;;;;;;11.88;100.00;94501.28;5146412;27;20215;-74
2023/05/30 01:28:54;;;;;;;4.15;2.70;;;;;;;11.78;100.00;94504.41;5138845;27;20200;-74
2023/05/30 01:31:23;;;;;;;5.18;2.63;;;;;;;11.80;100.00;94502.16;5143221;27;20219;-74
2023/05/30 01:33:50;;;;;;;4.80;3.05;;;;;;;11.78;100.00;94501.69;5139812;27;20197;-74
2023/05/30 01:36:18;;;;;;;3.97;2.78;;;;;;;11.80;100.00;94499.44;5147382;27;20735;-74
2023/05/30 01:38:44;;;;;;;4.70;2.97;;;;;;;11.72;100.00;94503.03;5149751;27;20678;-74
2023/05/30 01:41:18;;;;;;;5.18;2.85;;;;;;;11.77;100.00;94505.53;5141276;27;20742;-74
2023/05/30 01:43:56;;;;;;;4.03;3.33;;;;;;;11.77;100.00;94505.53;5137664;27;20205;-74
2023/05/30 01:46:31;;;;;;;3.30;2.58;;;;;;;11.74;100.00;94501.56;5143460;27;20249;-75
2023/05/30 01:49:06;;;;;;;3.72;2.60;;;;;;;11.74;100.00;94492.66;5148650;27;20188;-74
2023/05/30 01:51:39;;;;;;;4.35;3.05;;;;;;;11.72;100.00;94503.03;5141804;27;20685;-75
2023/05/30 01:54:10;;;;;;;5.40;3.00;;;;;;;11.72;100.00;94508.47;5146521;27;20192;-74
2023/05/30 01:56:39;;;;;;;8.80;3.50;;;;;;;11.74;100.00;94506.22;5150827;27;20701;-75
2023/05/30 01:59:09;;;;;;;6.50;3.50;;;;;;;11.72;100.00;94508.47;5136624;27;20228;-74
2023/05/30 02:01:37;;;;;;;4.78;2.60;;;;;;;11.74;100.00;94511.63;5143270;27;20462;-76
2023/05/30 02:04:04;;;;;;;10.57;3.63;;;;;;;11.76;100.00;94514.81;5144477;27;20197;-75
2023/05/30 02:06:31;;;;;;;4.88;2.97;;;;;;;11.72;100.00;94513.91;5132335;27;20220;-74
2023/05/30 02:08:58;;;;;;;10.35;3.22;;;;;;;11.72;100.00;94514.69;5144613;27;20189;-74
2023/05/30 02:11:25;;;;;;;4.30;2.67;;;;;;;11.73;100.00;94510.06;5140089;27;20204;-74
2023/05/30 02:13:52;;;;;;;5.18;2.72;;;;;;;11.62;100.00;94519.72;5143735;27;20379;-74
2023/05/30 02:16:21;;;;;;;4.95;3.17;;;;;;;11.62;100.00;94525.16;5147305;27;20229;-74
2023/05/30 02:18:48;;;;;;;7.75;3.60;;;;;;;11.61;100.00;94524.41;5134986;27;20196;-74
2023/05/30 02:21:14;;;;;;;5.68;3.50;;;;;;;11.54;100.00;94534.19;5149229;27;20315;-74
2023/05/30 02:23:41;;;;;;;7.13;3.30;;;;;;;11.59;100.00;94525.84;5141488;27;20196;-75
2023/05/30 02:26:08;;;;;;;8.52;3.70;;;;;;;11.46;100.00;94521.53;5148726;27;20216;-73
2023/05/30 02:28:35;;;;;;;4.78;3.28;;;;;;;11.57;100.00;94519.97;5149577;27;20196;-73
2023/05/30 02:31:02;;;;;;;6.65;3.88;;;;;;;11.59;100.00;94525.84;5142259;27;20200;-74
2023/05/30 02:33:31;;;;;;;8.15;3.33;;;;;;;11.54;100.00;94524.13;5141195;27;20216;-75
2023/05/30 02:35:58;;;;;;;3.70;2.95;;;;;;;11.50;100.00;94528.63;5144045;27;20650;-74
2023/05/30 02:38:25;;;;;;;10.73;4.32;;;;;;;11.37;100.00;94525.09;5143161;27;20209;-74
2023/05/30 02:40:52;;;;;;;8.60;4.10;;;;;;;11.42;100.00;94526.03;5147824;27;20212;-74
2023/05/30 02:43:19;;;;;;;5.75;3.78;;;;;;;11.45;100.00;94530.78;5149079;27;20200;-74
2023/05/30 02:45:45;;;;;;;6.85;4.00;;;;;;;11.47;100.00;94523.91;5146456;27;20236;-74
2023/05/30 02:48:12;;;;;;;5.95;2.95;;;;;;;11.48;100.00;94524.69;5148519;27;20188;-74
2023/05/30 02:50:40;;;;;;;6.72;3.72;;;;;;;11.52;100.00;94514.75;5148949;27;20203;-74
2023/05/30 02:53:07;;;;;;;6.00;3.65;;;;;;;11.51;100.00;94508.53;5149761;27;20208;-74
2023/05/30 02:55:34;;;;;;;8.50;3.90;;;;;;;11.51;100.00;94513.16;5147979;27;20643;-74
2023/05/30 02:58:01;;;;;;;4.75;3.63;;;;;;;11.54;100.00;94524.13;5147071;27;20736;-74
2023/05/30 03:00:27;;;;;;;6.85;3.78;;;;;;;11.59;100.00;94515.00;5148846;27;20667;-74
2023/05/30 03:02:55;;;;;;;6.55;4.20;;;;;;;11.60;100.00;94514.66;5150071;27;20252;-74
2023/05/30 03:05:22;;;;;;;8.07;4.05;;;;;;;11.57;100.00;94517.25;5148487;27;20204;-75
2023/05/30 03:07:51;;;;;;;7.10;3.90;;;;;;;11.70;100.00;94521.56;5147710;27;20206;-75
2023/05/30 03:10:18;;;;;;;8.25;4.32;;;;;;;11.68;100.00;94515.69;5147007;27;20204;-74
2023/05/30 03:12:45;;;;;;;5.95;4.20;;;;;;;11.77;100.00;94521.81;5149314;27;20606;-74
2023/05/30 03:15:12;;;;;;;7.10;5.13;;;;;;;11.84;100.00;94503.06;5146641;27;20212;-74
2023/05/30 03:17:40;;;;;;;8.85;4.93;;;;;;;11.94;100.00;94508.06;5149290;27;20201;-74
2023/05/30 03:20:08;;;;;;;9.65;4.35;;;;;;;12.12;100.00;94510.56;5147692;27;20212;-74
2023/05/30 03:22:35;;;;;;;6.45;3.70;;;;;;;12.20;100.00;94509.63;5146740;27;20207;-74
2023/05/30 03:25:03;;;;;;;11.05;4.32;;;;;;;12.16;100.00;94511.47;5149151;27;20204;-74
2023/05/30 03:27:30;;;;;;;8.68;4.25;;;;;;;12.15;100.00;94520.75;5149533;27;20539;-74
2023/05/30 03:29:57;;;;;;;7.00;4.68;;;;;;;12.18;100.00;94520.03;5148954;27;20207;-75
2023/05/30 03:32:24;;;;;;;5.68;4.18;;;;;;;12.31;100.00;94521.63;5149661;27;20203;-74
2023/05/30 03:34:51;;;;;;;9.35;4.22;;;;;;;12.44;100.00;94520.47;5138068;27;20257;-74
2023/05/30 03:37:18;;;;;;;10.27;5.38;;;;;;;12.45;100.00;94506.53;5153487;27;20220;-74
2023/05/30 03:39:44;;;;;;;12.35;5.00;;;;;;;12.60;100.00;94526.00;5152818;27;20586;-75
2023/05/30 03:42:13;;;;;;;7.20;4.80;;;;;;;12.60;100.00;94526.00;5152830;27;20667;-74
2023/05/30 03:44:39;;;;;;;6.93;4.78;;;;;;;12.62;100.00;94529.97;5153204;27;20211;-74
2023/05/30 03:47:07;;;;;;;9.00;4.75;;;;;;;12.69;100.00;94541.06;5152979;27;20259;-74
2023/05/30 03:49:33;;;;;;;9.80;4.80;;;;;;;12.89;100.00;94542.03;5146881;27;20216;-75
2023/05/30 03:52:00;;;;;;;6.97;4.35;;;;;;;13.04;100.00;94540.50;5133040;27;20212;-74
2023/05/30 03:54:27;;;;;;;8.15;5.07;;;;;;;13.20;100.00;94548.75;5132808;27;20246;-74
2023/05/30 03:56:54;;;;;;;9.05;5.05;;;;;;;13.30;100.00;94543.63;5132348;27;20227;-75
2023/05/30 03:59:22;;;;;;;8.55;4.90;;;;;;;13.57;98.23;94544.72;5144143;27;20215;-74
2023/05/30 04:01:49;;;;;;;8.30;4.28;;;;;;;13.71;96.80;94538.88;5151152;27;20200;-74
2023/05/30 04:04:15;;;;;;;8.65;5.13;;;;;;;13.81;96.87;94530.19;5151288;27;20254;-74
2023/05/30 04:06:42;;;;;;;9.10;4.82;;;;;;;13.90;96.34;94533.56;5151270;27;20224;-74
2023/05/30 04:09:09;;;;;;;8.00;5.18;;;;;;;13.83;96.13;94536.88;5150675;27;20193;-74
2023/05/30 04:11:36;;;;;;;9.18;4.75;;;;;;;14.06;96.36;94547.97;5148700;27;20196;-75
2023/05/30 04:14:02;;;;;;;13.98;5.38;;;;;;;14.22;95.61;94540.56;5152332;27;20551;-75
2023/05/30 04:16:31;;;;;;;9.00;5.35;;;;;;;13.88;96.11;94550.22;5147290;27;20609;-75
2023/05/30 04:18:58;;;;;;;8.18;5.45;;;;;;;14.04;94.35;94554.91;5138443;27;20275;-75
2023/05/30 04:21:25;;;;;;;12.32;6.13;;;;;;;13.82;95.33;94559.00;5150778;27;20204;-75
2023/05/30 04:23:52;;;;;;;10.07;5.70;;;;;;;14.23;94.77;94555.75;5138306;27;20200;-75
2023/05/30 04:26:20;;;;;;;12.32;5.57;;;;;;;14.86;93.57;94558.44;5152275;27;20303;-75
2023/05/30 04:28:47;;;;;;;13.27;5.18;;;;;;;16.73;85.70;94548.69;5152243;27;20206;-75
2023/05/30 04:31:14;;;;;;;8.77;5.05;;;;;;;19.69;79.77;94536.56;5150402;27;20212;-74
2023/05/30 04:33:48;;;;;;;10.60;5.90;;;;;;;21.23;74.41;94528.03;5151290;27;20192;-75
2023/05/30 04:36:18;;;;;;;7.90;5.00;;;;;;;22.35;68.80;94538.97;5147450;27;20625;-74
2023/05/30 04:38:44;;;;;;;6.75;4.57;;;;;;;24.08;58.88;94525.34;5150155;27;20201;-74
2023/05/30 04:41:18;;;;;;;8.25;4.80;;;;;;;25.57;53.45;94529.66;5134095;27;20674;-74
2023/05/30 04:43:48;;;;;;;8.75;4.70;;;;;;;25.77;53.63;94534.06;5131704;27;20232;-74
2023/05/30 04:46:18;;;;;;;9.35;4.80;;;;;;;26.04;49.81;94528.34;5146301;27;20243;-74
2023/05/30 04:48:48;;;;;;;7.55;3.95;;;;;;;25.47;50.32;94531.44;5150188;27;20673;-74
2023/05/30 04:51:15;;;;;;;6.45;4.55;;;;;;;24.02;54.40;94535.34;5151296;27;20292;-74
2023/05/30 04:53:41;;;;;;;8.52;4.60;;;;;;;24.26;55.01;94539.00;5150915;27;20656;-74
2023/05/30 04:56:08;;;;;;;7.55;4.25;;;;;;;23.01;56.31;94549.88;5150672;27;20643;-73
2023/05/30 04:58:35;;;;;;;7.15;4.80;;;;;;;21.80;59.56;94561.72;5151736;27;20715;-74
2023/05/30 05:01:02;;;;;;;6.50;4.40;;;;;;;21.08;61.20;94565.81;5151482;27;20204;-74
2023/05/30 05:03:29;;;;;;;7.28;4.63;;;;;;;20.45;63.92;94564.66;5152068;27;20659;-74
2023/05/30 05:05:57;;;;;;;7.70;4.88;;;;;;;19.55;67.97;94564.78;5151598;27;20603;-74
2023/05/30 05:08:26;;;;;;;10.25;5.70;;;;;;;19.28;69.24;94574.44;5138444;27;20204;-76
2023/05/30 05:10:53;;;;;;;9.95;5.05;;;;;;;18.77;70.62;94580.78;5151597;27;20292;-74
2023/05/30 05:13:19;;;;;;;5.60;4.82;;;;;;;19.09;71.14;94581.00;5151867;27;20208;-74
2023/05/30 05:15:46;;;;;;;7.82;4.90;;;;;;;19.03;71.52;94579.78;5151440;27;20214;-74
2023/05/30 05:18:13;;;;;;;8.60;6.05;;;;;;;18.63;73.42;94580.66;5151722;27;20630;-75
2023/05/30 05:20:40;;;;;;;8.05;5.75;;;;;;;18.29;74.91;94583.50;5151582;27;20281;-76
2023/05/30 05:23:09;;;;;;;8.88;5.75;;;;;;;17.98;76.91;94590.22;5152153;27;20227;-75
2023/05/30 05:25:36;;;;;;;7.13;5.15;;;;;;;18.19;74.33;94597.88;5151772;27;20535;-76
2023/05/30 05:28:03;;;;;;;17.20;9.50;;;;;;;18.23;76.04;94597.91;5151424;27;20246;-76
2023/05/30 05:30:30;;;;;;;10.60;7.70;;;;;;;18.04;76.90;94599.66;5146791;27;20214;-75
2023/05/30 05:32:56;;;;;;;7.15;5.95;;;;;;;17.77;77.56;94596.25;5147641;27;20628;-75
2023/05/30 05:35:23;;;;;;;10.35;6.65;;;;;;;17.75;79.63;94598.59;5150664;27;20252;-75
2023/05/30 05:37:50;;;;;;;13.65;9.98;;;;;;;17.83;81.42;94598.66;5150809;27;20239;-75
2023/05/30 05:40:18;;;;;;;13.50;7.43;;;;;;;18.08;80.22;94602.47;5150229;27;20272;-75
2023/05/30 05:42:45;;;;;;;8.85;6.07;;;;;;;18.04;78.43;94605.16;5150843;27;20216;-75
2023/05/30 05:45:12;;;;;;;6.93;5.55;;;;;;;17.91;78.80;94601.09;5148322;27;20205;-75
2023/05/30 05:47:39;;;;;;;10.73;5.50;;;;;;;18.23;78.01;94604.19;5137731;27;20244;-75
2023/05/30 05:50:07;;;;;;;6.50;5.70;;;;;;;18.29;77.50;94605.44;5141611;27;20207;-75
2023/05/30 05:52:34;;;;;;;7.20;5.95;;;;;;;18.41;77.42;94607.91;5146755;27;20304;-76
2023/05/30 05:55:00;;;;;;;8.48;5.72;;;;;;;18.72;77.22;94611.34;5146880;27;20643;-75
2023/05/30 05:57:29;;;;;;;6.90;5.75;;;;;;;18.78;74.12;94604.31;5144532;27;20571;-73
2023/05/30 05:59:56;;;;;;;8.25;5.85;;;;;;;18.75;73.24;94610.56;5145612;27;20707;-75
2023/05/30 06:02:23;;;;;;;10.18;5.70;;;;;;;18.92;75.14;94598.94;5145545;27;20204;-75
2023/05/30 06:04:49;;;;;;;7.63;5.53;;;;;;;18.97;71.82;94601.34;5148791;27;20196;-75
2023/05/30 06:07:16;;;;;;;8.70;5.95;;;;;;;18.83;73.37;94601.22;5147182;27;20313;-75
2023/05/30 06:09:43;;;;;;;6.53;5.45;;;;;;;19.14;71.92;94600.66;5144021;27;20204;-75
2023/05/30 06:12:10;;;;;;;12.15;6.65;;;;;;;19.10;71.52;94605.34;5147181;27;20203;-75
2023/05/30 06:14:38;;;;;;;6.70;5.50;;;;;;;19.47;70.31;94601.63;5150964;27;20211;-74
2023/05/30 06:17:06;;;;;;;8.68;5.93;;;;;;;19.83;69.33;94597.88;5147723;27;20192;-75
2023/05/30 06:19:32;;;;;;;10.70;6.82;;;;;;;19.57;70.09;94595.41;5149581;27;20202;-74
2023/05/30 06:21:59;;;;;;;7.55;6.38;;;;;;;19.36;71.98;94612.56;5150760;27;20200;-74
2023/05/30 06:24:26;;;;;;;8.13;6.22;;;;;;;19.32;71.37;94605.47;5149664;27;20567;-75
2023/05/30 06:26:53;;;;;;;8.98;6.45;;;;;;;19.14;70.85;94600.66;5140478;27;20770;-75
2023/05/30 06:29:20;;;;;;;9.60;6.38;;;;;;;19.24;70.71;94612.09;5146007;27;20305;-75
2023/05/30 06:31:48;;;;;;;6.90;6.13;;;;;;;19.51;70.42;94608.75;5146160;27;20219;-74
2023/05/30 06:34:15;;;;;;;12.88;6.45;;;;;;;19.48;70.56;94616.94;5147178;27;20682;-75
2023/05/30 06:36:42;;;;;;;11.88;6.80;;;;;;;18.98;72.26;94624.88;5148964;27;20269;-76
2023/05/30 06:39:15;;;;;;;14.25;6.88;;;;;;;18.99;72.21;94615.47;5149725;27;20207;-75
2023/05/30 06:41:42;;;;;;;14.68;7.63;;;;;;;18.19;74.17;94628.03;5150037;27;20188;-75
2023/05/30 06:44:09;;;;;;;15.30;7.28;;;;;;;18.17;74.89;94624.91;5150658;27;20260;-75
2023/05/30 06:46:36;;;;;;;15.45;7.28;;;;;;;17.95;76.94;94623.06;5148677;27;20232;-73
2023/05/30 06:49:05;;;;;;;10.80;6.95;;;;;;;17.87;77.14;94632.38;5150797;27;20206;-73
2023/05/30 06:51:32;;;;;;;11.02;7.57;;;;;;;17.89;76.66;94635.53;5150265;27;20726;-74
2023/05/30 06:53:59;;;;;;;16.98;8.15;;;;;;;17.75;76.70;94636.94;5150031;27;20693;-74
2023/05/30 06:56:26;;;;;;;12.55;7.90;;;;;;;17.93;76.21;94637.13;5150236;27;20204;-74
2023/05/30 06:58:53;;;;;;;11.40;7.68;;;;;;;18.11;75.59;94632.66;5147308;27;20246;-74
2023/05/30 07:01:20;;;;;;;13.50;8.80;;;;;;;18.14;75.84;94628.38;5129630;27;20746;-74
2023/05/30 07:03:47;;;;;;;14.30;8.13;;;;;;;18.37;74.79;94634.50;5128879;27;20670;-74
2023/05/30 07:06:15;;;;;;;13.80;8.30;;;;;;;18.06;76.54;94634.94;5129169;27;20201;-75
2023/05/30 07:08:42;;;;;;;15.82;8.68;;;;;;;18.22;76.34;94632.78;5129687;27;20636;-74
2023/05/30 07:11:08;;;;;;;19.50;8.30;;;;;;;18.72;74.79;94642.28;5133549;27;20213;-75
2023/05/30 07:13:35;;;;;;;14.02;8.95;;;;;;;18.51;73.92;94638.53;5133128;27;20597;-75
2023/05/30 07:16:02;;;;;;;16.85;9.45;;;;;;;18.69;73.15;94639.53;5133879;27;20205;-75
2023/05/30 07:18:29;;;;;;;15.23;9.07;;;;;;;19.05;72.66;94638.63;5151671;27;20301;-74
2023/05/30 07:20:55;;;;;;;19.70;9.07;;;;;;;19.80;70.50;94626.19;5153351;27;20200;-75
2023/05/30 07:23:24;;;;;;;19.27;8.65;;;;;;;19.88;70.21;94627.78;5153779;27;20241;-74
2023/05/30 07:25:50;;;;;;;14.38;8.65;;;;;;;20.45;68.42;94638.97;5153907;27;20200;-75
2023/05/30 07:28:20;;;;;;;14.60;9.98;;;;;;;20.87;68.42;94640.22;5154162;27;20239;-74
2023/05/30 07:30:46;;;;;;;16.05;9.95;;;;;;;20.73;67.76;94638.22;5154042;27;20291;-75
2023/05/30 07:33:13;;;;;;;16.67;10.68;;;;;;;20.46;68.49;94643.31;5153932;27;20215;-75
2023/05/30 07:35:41;;;;;;;18.63;10.07;;;;;;;20.27;68.98;94629.84;5153939;27;20619;-74
2023/05/30 07:38:08;;;;;;;15.20;10.20;;;;;;;20.81;68.52;94639.00;5153963;27;20212;-75
2023/05/30 07:40:37;;;;;;;17.20;9.90;;;;;;;20.90;68.36;94629.19;5153992;27;20561;-75
2023/05/30 07:43:03;;;;;;;19.48;12.07;;;;;;;20.99;66.80;94637.06;5153477;27;20619;-76
2023/05/30 07:45:30;;;;;;;22.70;12.02;;;;;;;21.05;66.16;94634.69;5153754;27;20207;-75
2023/05/30 07:47:57;;;;;;;18.55;11.70;;;;;;;20.89;67.06;94635.09;5153622;27;20224;-76
2023/05/30 07:50:24;;;;;;;22.88;12.40;;;;;;;20.81;68.64;94639.81;5153875;27;20655;-76
2023/05/30 07:52:50;;;;;;;19.70;11.40;;;;;;;21.53;65.17;94637.81;5153400;27;20200;-75
2023/05/30 07:55:17;;;;;;;20.67;11.93;;;;;;;22.19;63.12;94632.50;5153376;27;20223;-77
2023/05/30 07:57:45;;;;;;;17.38;11.52;;;;;;;22.92;60.85;94635.22;5153217;27;20230;-76
2023/05/30 08:00:14;;;;;;;19.50;11.45;;;;;;;22.63;61.02;94629.88;5138693;27;20238;-75
2023/05/30 08:02:40;;;;;;;14.30;9.70;;;;;;;23.08;58.88;94632.75;5132348;27;20204;-76
2023/05/30 08:05:08;;;;;;;10.38;6.07;;;;;;;23.14;57.55;94642.16;5132361;27;20212;-76
2023/05/30 08:07:34;;;;;;;13.65;7.60;;;;;;;22.72;59.13;94634.16;5132270;27;20232;-77
2023/05/30 08:10:01;;;;;;;11.60;7.72;;;;;;;22.72;60.12;94628.63;5132562;27;20292;-76
2023/05/30 08:12:29;;;;;;;14.40;7.30;;;;;;;22.58;60.82;94635.81;5132192;27;20631;-76
2023/05/30 08:14:57;;;;;;;12.93;7.10;;;;;;;22.60;59.43;94636.22;5132524;27;20240;-77
2023/05/30 08:17:25;;;;;;;8.07;5.03;;;;;;;22.92;57.69;94635.22;5132263;27;20201;-76
2023/05/30 08:19:53;;;;;;;7.05;3.97;;;;;;;23.52;56.96;94628.41;5131990;27;20288;-76
2023/05/30 08:22:21;;;;;;;9.93;4.88;;;;;;;24.13;54.29;94631.28;5140121;27;20287;-76
2023/05/30 08:24:49;;;;;;;8.98;5.30;;;;;;;24.26;53.72;94626.81;5152555;27;20635;-75
2023/05/30 08:27:16;;;;;;;11.23;5.75;;;;;;;24.59;53.19;94631.50;5143117;27;20237;-76
2023/05/30 08:29:43;;;;;;;10.00;5.30;;;;;;;25.30;51.59;94626.84;5135037;27;20211;-74
2023/05/30 08:32:11;;;;;;;9.63;5.70;;;;;;;25.05;52.03;94630.03;5152338;27;20216;-79
2023/05/30 08:34:38;;;;;;;9.23;6.45;;;;;;;23.59;54.26;94633.88;5151636;27;20208;-79
2023/05/30 08:37:06;;;;;;;15.55;6.50;;;;;;;23.36;54.78;94624.19;5152425;27;20281;-77
2023/05/30 08:39:33;;;;;;;9.23;6.20;;;;;;;24.05;55.15;94623.06;5152431;27;20212;-76
2023/05/30 08:42:00;;;;;;;11.20;6.30;;;;;;;24.49;52.56;94624.09;5152471;27;20219;-75
2023/05/30 08:44:28;;;;;;;10.65;6.13;;;;;;;25.00;52.05;94617.47;5152325;27;20355;-74
2023/05/30 08:46:55;;;;;;;12.48;6.90;;;;;;;25.35;51.15;94624.38;5151863;27;20595;-75
2023/05/30 08:49:24;;;;;;;9.45;6.32;;;;;;;24.28;52.22;94618.88;5151708;27;20281;-75
2023/05/30 08:51:53;;;;;;;10.00;6.35;;;;;;;23.13;56.04;94637.81;5152084;27;20260;-74
2023/05/30 08:54:23;;;;;;;14.77;6.50;;;;;;;22.98;57.67;94637.13;5152051;27;20200;-76
2023/05/30 08:56:59;;;;;;;8.93;6.47;;;;;;;22.14;61.54;94646.72;5151834;27;20234;-78
2023/05/30 08:59:26;;;;;;;11.50;7.63;;;;;;;21.80;62.68;94641.69;5143996;27;20269;-76
2023/05/30 09:01:56;;;;;;;9.55;7.30;;;;;;;21.17;66.15;94640.59;5131404;27;20211;-75
2023/05/30 09:04:26;;;;;;;10.13;7.75;;;;;;;21.26;66.03;94649.28;5131189;27;20250;-77
2023/05/30 09:06:56;;;;;;;13.63;8.15;;;;;;;21.14;65.47;94649.66;5134189;27;20207;-74
2023/05/30 09:09:24;;;;;;;11.30;8.20;;;;;;;21.06;66.19;94645.31;5151742;27;20216;-77
2023/05/30 09:11:52;;;;;;;15.38;8.77;;;;;;;21.22;65.68;94651.25;5151739;27;20203;-77
2023/05/30 09:14:19;;;;;;;12.07;7.45;;;;;;;21.39;65.67;94641.38;5151471;27;20225;-75
2023/05/30 09:16:45;;;;;;;11.63;7.78;;;;;;;21.56;65.52;94643.34;5151599;27;20252;-76
2023/05/30 09:19:12;;;;;;;12.13;8.00;;;;;;;21.28;66.52;94652.44;5140263;27;20380;-76
2023/05/30 09:21:41;;;;;;;13.25;7.45;;;;;;;21.72;63.96;94637.38;5134439;27;20555;-76
2023/05/30 09:24:08;;;;;;;11.85;7.07;;;;;;;21.59;65.63;94644.50;5151654;27;20208;-76
2023/05/30 09:26:34;;;;;;;13.30;6.07;;;;;;;21.07;65.38;94641.38;5151130;27;20212;-77
2023/05/30 09:29:11;;;;;;;9.98;7.05;;;;;;;21.02;65.30;94650.06;5151387;27;20765;-77
2023/05/30 09:31:38;;;;;;;10.07;5.80;;;;;;;20.72;66.39;94646.88;5145329;27;20598;-75
2023/05/30 09:34:06;;;;;;;7.82;5.22;;;;;;;20.83;66.22;94653.19;5129792;27;20730;-75
2023/05/30 09:36:33;;;;;;;9.95;5.95;;;;;;;20.99;65.40;94639.81;5129419;27;20217;-76
2023/05/30 09:39:05;;;;;;;10.07;6.20;;;;;;;20.91;65.61;94639.00;5129973;27;20217;-75
2023/05/30 09:41:32;;;;;;;8.13;5.32;;;;;;;21.30;64.71;94642.97;5129825;27;20201;-77
2023/05/30 09:44:00;;;;;;;9.25;5.60;;;;;;;21.53;65.09;94629.53;5130479;27;20212;-74
2023/05/30 09:46:29;;;;;;;7.32;5.43;;;;;;;22.14;62.73;94630.16;5130361;27;20385;-75
2023/05/30 09:48:57;;;;;;;7.13;5.03;;;;;;;22.45;61.68;94625.66;5145516;27;20224;-75
2023/05/30 09:51:25;;;;;;;8.85;4.78;;;;;;;21.72;62.95;94631.88;5151121;27;20204;-77
2023/05/30 09:54:01;;;;;;;11.40;6.57;;;;;;;21.44;63.83;94629.19;5150658;27;20208;-76
2023/05/30 09:56:34;;;;;;;7.93;5.78;;;;;;;22.00;62.70;94635.75;5150927;27;20188;-76
2023/05/30 09:59:06;;;;;;;8.80;5.10;;;;;;;22.38;62.08;94626.50;5141448;27;20199;-76
2023/05/30 10:01:38;;;;;;;6.05;5.45;;;;;;;21.77;63.63;94623.16;5151157;27;20741;-76
2023/05/30 10:04:12;;;;;;;10.18;5.18;;;;;;;22.33;62.92;94618.63;5150460;27;20292;-77
2023/05/30 10:06:41;;;;;;;9.98;5.68;;;;;;;22.28;61.70;94619.81;5150943;27;20625;-75
2023/05/30 10:09:11;;;;;;;8.25;5.55;;;;;;;22.34;62.58;94617.44;5151179;27;20231;-76
2023/05/30 10:11:39;;;;;;;7.78;4.38;;;;;;;22.61;59.61;94621.22;5150465;27;20200;-75
2023/05/30 10:14:06;;;;;;;10.13;5.00;;;;;;;22.38;59.00;94623.72;5143160;27;20541;-76
2023/05/30 10:16:35;;;;;;;6.82;4.40;;;;;;;21.77;59.93;94617.66;5130073;27;20296;-74
2023/05/30 10:19:07;;;;;;;5.93;3.47;;;;;;;22.81;57.60;94623.47;5130382;27;20201;-75
2023/05/30 10:21:37;;;;;;;6.00;3.78;;;;;;;23.09;58.04;94622.47;5133238;27;20196;-75
2023/05/30 10:24:05;;;;;;;5.88;3.25;;;;;;;22.90;57.98;94615.50;5150674;27;20222;-76
2023/05/30 10:26:36;;;;;;;5.93;3.92;;;;;;;22.22;58.43;94615.13;5150523;27;20239;-80
2023/05/30 10:29:08;;;;;;;5.00;3.78;;;;;;;22.08;60.75;94610.47;5150889;27;20269;-75
2023/05/30 10:31:37;;;;;;;8.45;4.30;;;;;;;21.95;61.77;94601.84;5131513;27;20204;-76
2023/05/30 10:34:06;;;;;;;5.82;4.47;;;;;;;22.27;60.18;94611.97;5130208;27;20209;-75
2023/05/30 10:36:34;;;;;;;8.10;4.70;;;;;;;22.09;60.11;94605.75;5129707;27;20312;-75
2023/05/30 10:39:11;;;;;;;7.22;5.07;;;;;;;22.35;61.05;94602.44;5129736;27;20690;-75
2023/05/30 10:41:56;;;;;;;8.75;4.60;;;;;;;22.92;59.52;94607.59;5130192;27;20200;-75
2023/05/30 10:44:33;;;;;;;9.18;4.80;;;;;;;22.70;60.00;94601.41;5130677;27;20213;-74
2023/05/30 10:47:18;;;;;;;8.93;5.13;;;;;;;22.43;60.00;94594.88;5134011;27;20267;-74
2023/05/30 10:49:47;;;;;;;7.72;4.60;;;;;;;22.60;59.07;94599.53;5141537;27;20220;-74
2023/05/30 10:52:17;;;;;;;5.95;4.03;;;;;;;22.54;59.07;94588.13;5154733;27;20230;-75
2023/05/30 10:54:46;;;;;;;4.90;3.35;;;;;;;22.88;58.35;94584.75;5145593;27;20205;-75
2023/05/30 10:57:27;;;;;;;5.55;3.22;;;;;;;23.46;55.32;94569.19;5133849;27;20315;-76
2023/05/30 10:59:57;;;;;;;6.90;2.75;;;;;;;23.16;56.55;94587.25;5149722;27;20245;-78
2023/05/30 11:02:37;;;;;;;4.00;2.60;;;;;;;22.37;58.33;94577.19;5154761;27;20200;-76
2023/05/30 11:05:06;;;;;;;2.42;2.15;;;;;;;21.87;58.19;94583.72;5154594;27;20592;-73
2023/05/30 11:07:36;;;;;;;3.75;2.70;;;;;;;21.74;59.07;94579.84;5154478;27;20197;-75
2023/05/30 11:10:04;;;;;;;4.15;2.53;;;;;;;22.33;59.61;94580.75;5154157;27;20670;-74
2023/05/30 11:12:32;;;;;;;6.80;2.95;;;;;;;22.81;56.69;94568.25;5145410;27;20583;-75
2023/05/30 11:15:00;;;;;;;4.82;2.75;;;;;;;22.50;55.94;94559.75;5133531;27;20209;-73
2023/05/30 11:17:32;;;;;;;6.70;3.30;;;;;;;23.03;55.22;94550.28;5133939;27;20204;-73
2023/05/30 11:20:08;;;;;;;6.53;3.10;;;;;;;23.11;55.50;94549.00;5133858;27;20288;-75
2023/05/30 11:22:35;;;;;;;5.03;3.05;;;;;;;22.98;55.19;94539.66;5144649;27;20199;-75
2023/05/30 11:25:23;;;;;;;5.05;3.33;;;;;;;22.59;55.59;94540.75;5135768;27;20212;-75
2023/05/30 11:28:12;;;;;;;6.03;3.20;;;;;;;22.20;56.89;94540.25;5133947;27;20209;-74
2023/05/30 11:30:44;;;;;;;5.47;3.78;;;;;;;21.90;57.46;94538.00;5153847;27;20200;-74
2023/05/30 11:33:11;;;;;;;4.60;3.28;;;;;;;22.14;58.05;94525.31;5153992;27;20204;-74